sensor_id;sensor_type;location;lat;lon;timestamp;pressure;altitude;pressure_sealevel;temperature;humidity
70374;BME280;57792;49.198;7.890;2022-08-14T00:00:58;98420.38;;;15.14;51.32
70374;BME280;57792;49.198;7.890;2022-08-14T00:01:59;98416.63;;;15.17;51.14
70374;BME280;57792;49.198;7.890;2022-08-14T00:03:00;98416.56;;;14.90;52.52
70374;BME280;57792;49.198;7.890;2022-08-14T00:04:00;98416.75;;;15.01;51.11
70374;BME280;57792;49.198;7.890;2022-08-14T00:05:00;98415.69;;;15.03;52.08
70374;BME280;57792;49.198;7.890;2022-08-14T00:06:02;98411.28;;;15.02;51.86
70374;BME280;57792;49.198;7.890;2022-08-14T00:07:03;98411.09;;;15.05;51.15
70374;BME280;57792;49.198;7.890;2022-08-14T00:08:04;98416.25;;;15.08;51.19
70374;BME280;57792;49.198;7.890;2022-08-14T00:09:04;98412.06;;;15.04;51.02
70374;BME280;57792;49.198;7.890;2022-08-14T00:10:07;98406.00;;;15.01;51.41
70374;BME280;57792;49.198;7.890;2022-08-14T00:11:07;98412.72;;;15.08;50.99
70374;BME280;57792;49.198;7.890;2022-08-14T00:12:08;98414.66;;;14.92;51.97
70374;BME280;57792;49.198;7.890;2022-08-14T00:13:10;98416.47;;;14.91;51.72
70374;BME280;57792;49.198;7.890;2022-08-14T00:14:11;98406.06;;;14.87;51.92
70374;BME280;57792;49.198;7.890;2022-08-14T00:16:19;98404.13;;;14.89;52.10
70374;BME280;57792;49.198;7.890;2022-08-14T00:17:20;98411.78;;;14.95;52.13
70374;BME280;57792;49.198;7.890;2022-08-14T00:18:22;98412.53;;;14.97;51.85
70374;BME280;57792;49.198;7.890;2022-08-14T00:19:23;98407.25;;;14.95;51.49
70374;BME280;57792;49.198;7.890;2022-08-14T00:20:27;98412.47;;;14.84;52.38
70374;BME280;57792;49.198;7.890;2022-08-14T00:21:28;98411.09;;;14.91;51.38
70374;BME280;57792;49.198;7.890;2022-08-14T00:22:28;98411.31;;;14.88;51.89
70374;BME280;57792;49.198;7.890;2022-08-14T00:23:29;98407.56;;;14.91;51.30
70374;BME280;57792;49.198;7.890;2022-08-14T00:24:30;98413.69;;;14.93;51.30
70374;BME280;57792;49.198;7.890;2022-08-14T00:25:30;98412.25;;;14.44;53.98
70374;BME280;57792;49.198;7.890;2022-08-14T00:26:30;98417.50;;;14.32;53.28
70374;BME280;57792;49.198;7.890;2022-08-14T00:27:31;98405.38;;;14.40;52.67
70374;BME280;57792;49.198;7.890;2022-08-14T00:28:32;98418.78;;;14.55;52.86
70374;BME280;57792;49.198;7.890;2022-08-14T00:29:33;98412.25;;;14.59;52.34
70374;BME280;57792;49.198;7.890;2022-08-14T00:30:34;98409.38;;;14.62;52.27
70374;BME280;57792;49.198;7.890;2022-08-14T00:31:35;98405.19;;;14.72;51.96
70374;BME280;57792;49.198;7.890;2022-08-14T00:32:36;98405.09;;;14.73;51.85
70374;BME280;57792;49.198;7.890;2022-08-14T00:33:37;98391.69;;;14.73;51.85
70374;BME280;57792;49.198;7.890;2022-08-14T00:34:37;98396.97;;;14.75;52.09
70374;BME280;57792;49.198;7.890;2022-08-14T00:35:38;98391.31;;;14.65;53.28
70374;BME280;57792;49.198;7.890;2022-08-14T00:36:38;98397.78;;;14.61;52.86
70374;BME280;57792;49.198;7.890;2022-08-14T00:37:41;98384.38;;;14.61;52.46
70374;BME280;57792;49.198;7.890;2022-08-14T00:38:42;98389.19;;;14.70;52.20
70374;BME280;57792;49.198;7.890;2022-08-14T00:39:42;98388.63;;;14.65;52.50
70374;BME280;57792;49.198;7.890;2022-08-14T00:40:43;98377.88;;;14.65;52.24
70374;BME280;57792;49.198;7.890;2022-08-14T00:41:45;98374.25;;;14.66;52.43
70374;BME280;57792;49.198;7.890;2022-08-14T00:42:46;98367.91;;;14.67;52.33
70374;BME280;57792;49.198;7.890;2022-08-14T00:43:47;98359.19;;;14.50;52.53
70374;BME280;57792;49.198;7.890;2022-08-14T00:44:48;98353.53;;;14.54;52.50
70374;BME280;57792;49.198;7.890;2022-08-14T00:45:48;98347.69;;;14.48;53.01
70374;BME280;57792;49.198;7.890;2022-08-14T00:46:49;98338.78;;;14.47;52.95
70374;BME280;57792;49.198;7.890;2022-08-14T00:47:50;98338.69;;;14.34;53.51
70374;BME280;57792;49.198;7.890;2022-08-14T00:48:50;98333.53;;;14.31;53.92
70374;BME280;57792;49.198;7.890;2022-08-14T00:49:52;98337.34;;;14.27;53.70
70374;BME280;57792;49.198;7.890;2022-08-14T00:50:53;98327.28;;;14.31;53.40
70374;BME280;57792;49.198;7.890;2022-08-14T00:51:54;98338.41;;;14.39;53.51
70374;BME280;57792;49.198;7.890;2022-08-14T00:52:55;98344.53;;;14.41;53.64
70374;BME280;57792;49.198;7.890;2022-08-14T00:53:56;98343.88;;;14.23;54.23
70374;BME280;57792;49.198;7.890;2022-08-14T00:54:57;98348.47;;;14.21;53.66
70374;BME280;57792;49.198;7.890;2022-08-14T00:55:58;98357.72;;;14.01;55.08
70374;BME280;57792;49.198;7.890;2022-08-14T00:56:58;98349.59;;;14.03;53.94
70374;BME280;57792;49.198;7.890;2022-08-14T00:57:59;98353.25;;;14.02;54.04
70374;BME280;57792;49.198;7.890;2022-08-14T00:59:18;98352.88;;;14.08;53.79
70374;BME280;57792;49.198;7.890;2022-08-14T01:00:18;98357.09;;;14.12;53.77
70374;BME280;57792;49.198;7.890;2022-08-14T01:01:19;98355.53;;;14.08;53.84
70374;BME280;57792;49.198;7.890;2022-08-14T01:02:20;98356.41;;;14.08;54.47
70374;BME280;57792;49.198;7.890;2022-08-14T01:03:25;98353.63;;;14.10;53.95
70374;BME280;57792;49.198;7.890;2022-08-14T01:04:28;98349.50;;;14.04;53.93
70374;BME280;57792;49.198;7.890;2022-08-14T01:05:31;98349.03;;;14.12;54.14
70374;BME280;57792;49.198;7.890;2022-08-14T01:06:33;98339.19;;;14.12;53.98
70374;BME280;57792;49.198;7.890;2022-08-14T01:07:34;98346.28;;;14.13;54.04
70374;BME280;57792;49.198;7.890;2022-08-14T01:08:37;98331.91;;;14.15;53.88
70374;BME280;57792;49.198;7.890;2022-08-14T01:09:38;98336.41;;;14.14;53.88
70374;BME280;57792;49.198;7.890;2022-08-14T01:10:41;98337.84;;;14.05;54.92
70374;BME280;57792;49.198;7.890;2022-08-14T01:11:52;98341.75;;;14.00;54.13
70374;BME280;57792;49.198;7.890;2022-08-14T01:12:53;98340.03;;;13.99;54.17
70374;BME280;57792;49.198;7.890;2022-08-14T01:13:53;98332.84;;;13.99;54.17
70374;BME280;57792;49.198;7.890;2022-08-14T01:15:00;98340.88;;;13.85;55.26
70374;BME280;57792;49.198;7.890;2022-08-14T01:16:08;98344.88;;;13.78;55.59
70374;BME280;57792;49.198;7.890;2022-08-14T01:17:10;98345.16;;;13.73;55.86
70374;BME280;57792;49.198;7.890;2022-08-14T01:18:11;98350.06;;;13.81;54.73
70374;BME280;57792;49.198;7.890;2022-08-14T01:19:30;98345.66;;;13.80;54.95
70374;BME280;57792;49.198;7.890;2022-08-14T01:20:50;98346.69;;;13.77;54.83
70374;BME280;57792;49.198;7.890;2022-08-14T01:22:02;98336.84;;;13.78;54.86
70374;BME280;57792;49.198;7.890;2022-08-14T01:23:11;98348.41;;;13.78;55.76
70374;BME280;57792;49.198;7.890;2022-08-14T01:24:13;98338.19;;;13.85;54.26
70374;BME280;57792;49.198;7.890;2022-08-14T01:25:16;98342.34;;;13.91;54.49
70374;BME280;57792;49.198;7.890;2022-08-14T01:26:19;98345.97;;;13.90;54.95
70374;BME280;57792;49.198;7.890;2022-08-14T01:27:22;98335.44;;;13.87;54.61
70374;BME280;57792;49.198;7.890;2022-08-14T01:28:24;98334.66;;;13.85;54.47
70374;BME280;57792;49.198;7.890;2022-08-14T01:29:30;98335.31;;;13.74;55.94
70374;BME280;57792;49.198;7.890;2022-08-14T01:30:35;98337.13;;;13.73;55.04
70374;BME280;57792;49.198;7.890;2022-08-14T01:31:37;98333.41;;;13.76;54.98
70374;BME280;57792;49.198;7.890;2022-08-14T01:32:44;98329.00;;;13.75;54.94
70374;BME280;57792;49.198;7.890;2022-08-14T01:33:47;98324.50;;;13.75;54.75
70374;BME280;57792;49.198;7.890;2022-08-14T01:34:51;98325.63;;;13.71;55.47
70374;BME280;57792;49.198;7.890;2022-08-14T01:35:56;98320.28;;;13.71;54.53
70374;BME280;57792;49.198;7.890;2022-08-14T01:37:00;98320.19;;;13.73;55.13
70374;BME280;57792;49.198;7.890;2022-08-14T01:38:02;98319.63;;;13.52;56.33
70374;BME280;57792;49.198;7.890;2022-08-14T01:39:13;98329.16;;;13.42;56.67
70374;BME280;57792;49.198;7.890;2022-08-14T01:40:14;98329.16;;;13.42;55.76
70374;BME280;57792;49.198;7.890;2022-08-14T01:41:17;98330.63;;;13.48;55.84
70374;BME280;57792;49.198;7.890;2022-08-14T01:42:21;98332.34;;;13.49;55.65
70374;BME280;57792;49.198;7.890;2022-08-14T01:43:22;98329.41;;;13.23;57.05
70374;BME280;57792;49.198;7.890;2022-08-14T01:44:23;98327.41;;;13.11;57.10
70374;BME280;57792;49.198;7.890;2022-08-14T01:45:27;98331.03;;;13.26;56.49
70374;BME280;57792;49.198;7.890;2022-08-14T01:46:35;98327.53;;;13.39;56.89
70374;BME280;57792;49.198;7.890;2022-08-14T01:47:35;98328.03;;;13.46;55.91
70374;BME280;57792;49.198;7.890;2022-08-14T01:48:38;98326.81;;;13.52;55.67
70374;BME280;57792;49.198;7.890;2022-08-14T01:49:41;98318.94;;;13.49;55.90
70374;BME280;57792;49.198;7.890;2022-08-14T01:50:41;98322.94;;;13.41;55.92
70374;BME280;57792;49.198;7.890;2022-08-14T01:51:42;98325.16;;;13.49;55.73
70374;BME280;57792;49.198;7.890;2022-08-14T01:52:43;98332.69;;;13.12;57.25
70374;BME280;57792;49.198;7.890;2022-08-14T01:53:45;98330.25;;;13.24;56.84
70374;BME280;57792;49.198;7.890;2022-08-14T01:54:48;98330.72;;;13.00;58.63
70374;BME280;57792;49.198;7.890;2022-08-14T01:55:48;98321.91;;;13.14;57.02
70374;BME280;57792;49.198;7.890;2022-08-14T01:56:52;98324.44;;;13.31;56.71
70374;BME280;57792;49.198;7.890;2022-08-14T01:57:55;98319.47;;;13.25;56.96
70374;BME280;57792;49.198;7.890;2022-08-14T01:58:56;98316.47;;;13.30;56.51
70374;BME280;57792;49.198;7.890;2022-08-14T01:59:56;98315.44;;;13.32;56.54
70374;BME280;57792;49.198;7.890;2022-08-14T02:00:57;98315.44;;;13.32;56.35
70374;BME280;57792;49.198;7.890;2022-08-14T02:02:00;98312.94;;;13.29;56.37
70374;BME280;57792;49.198;7.890;2022-08-14T02:03:03;98316.69;;;13.27;56.82
70374;BME280;57792;49.198;7.890;2022-08-14T02:04:04;98312.09;;;13.29;56.21
70374;BME280;57792;49.198;7.890;2022-08-14T02:05:04;98311.03;;;13.31;56.37
70374;BME280;57792;49.198;7.890;2022-08-14T02:06:07;98307.50;;;13.31;56.22
70374;BME280;57792;49.198;7.890;2022-08-14T02:07:08;98301.38;;;13.29;56.29
70374;BME280;57792;49.198;7.890;2022-08-14T02:08:09;98304.34;;;13.24;56.34
70374;BME280;57792;49.198;7.890;2022-08-14T02:09:09;98309.31;;;13.30;56.12
70374;BME280;57792;49.198;7.890;2022-08-14T02:10:10;98306.06;;;13.25;56.62
70374;BME280;57792;49.198;7.890;2022-08-14T02:11:11;98313.16;;;13.26;56.83
70374;BME280;57792;49.198;7.890;2022-08-14T02:12:21;98292.09;;;13.20;56.26
70374;BME280;57792;49.198;7.890;2022-08-14T02:13:23;98297.09;;;13.26;56.31
70374;BME280;57792;49.198;7.890;2022-08-14T02:14:24;98300.41;;;13.30;56.82
70374;BME280;57792;49.198;7.890;2022-08-14T02:15:24;98283.59;;;13.28;56.28
70374;BME280;57792;49.198;7.890;2022-08-14T02:16:27;98295.06;;;13.30;56.95
70374;BME280;57792;49.198;7.890;2022-08-14T02:17:32;98298.13;;;13.24;56.88
70374;BME280;57792;49.198;7.890;2022-08-14T02:18:32;98290.19;;;13.22;56.55
70374;BME280;57792;49.198;7.890;2022-08-14T02:19:33;98301.44;;;13.13;57.47
70374;BME280;57792;49.198;7.890;2022-08-14T02:20:34;98298.00;;;12.95;58.34
70374;BME280;57792;49.198;7.890;2022-08-14T02:21:37;98297.03;;;12.96;57.87
70374;BME280;57792;49.198;7.890;2022-08-14T02:22:39;98291.34;;;13.02;57.10
70374;BME280;57792;49.198;7.890;2022-08-14T02:23:39;98300.91;;;13.06;57.10
70374;BME280;57792;49.198;7.890;2022-08-14T02:24:40;98300.47;;;13.14;56.85
70374;BME280;57792;49.198;7.890;2022-08-14T02:25:40;98304.47;;;13.07;57.00
70374;BME280;57792;49.198;7.890;2022-08-14T02:26:42;98294.19;;;13.15;56.96
70374;BME280;57792;49.198;7.890;2022-08-14T02:27:46;98294.25;;;13.13;57.13
70374;BME280;57792;49.198;7.890;2022-08-14T02:28:50;98297.72;;;13.16;57.15
70374;BME280;57792;49.198;7.890;2022-08-14T02:29:51;98301.34;;;13.15;56.84
70374;BME280;57792;49.198;7.890;2022-08-14T02:30:53;98302.66;;;13.07;57.55
70374;BME280;57792;49.198;7.890;2022-08-14T02:31:56;98296.16;;;13.11;57.46
70374;BME280;57792;49.198;7.890;2022-08-14T02:32:57;98289.78;;;13.14;57.04
70374;BME280;57792;49.198;7.890;2022-08-14T02:33:59;98291.00;;;13.08;56.92
70374;BME280;57792;49.198;7.890;2022-08-14T02:34:59;98286.59;;;13.07;57.15
70374;BME280;57792;49.198;7.890;2022-08-14T02:36:01;98293.84;;;13.05;57.43
70374;BME280;57792;49.198;7.890;2022-08-14T02:37:08;98297.38;;;13.06;57.74
70374;BME280;57792;49.198;7.890;2022-08-14T02:38:09;98297.28;;;13.07;57.01
70374;BME280;57792;49.198;7.890;2022-08-14T02:39:11;98297.03;;;13.12;56.62
70374;BME280;57792;49.198;7.890;2022-08-14T02:40:12;98296.59;;;13.04;57.17
70374;BME280;57792;49.198;7.890;2022-08-14T02:41:13;98298.06;;;13.09;57.36
70374;BME280;57792;49.198;7.890;2022-08-14T02:42:17;98294.00;;;13.02;58.01
70374;BME280;57792;49.198;7.890;2022-08-14T02:43:20;98286.25;;;12.98;57.91
70374;BME280;57792;49.198;7.890;2022-08-14T02:44:20;98295.16;;;12.98;57.24
70374;BME280;57792;49.198;7.890;2022-08-14T02:45:22;98290.94;;;12.94;57.35
70374;BME280;57792;49.198;7.890;2022-08-14T02:46:23;98298.78;;;12.97;57.25
70374;BME280;57792;49.198;7.890;2022-08-14T02:47:23;98289.97;;;12.95;57.48
70374;BME280;57792;49.198;7.890;2022-08-14T02:48:24;98295.28;;;12.81;58.57
70374;BME280;57792;49.198;7.890;2022-08-14T02:49:30;98286.28;;;12.82;58.11
70374;BME280;57792;49.198;7.890;2022-08-14T02:50:31;98285.44;;;12.82;57.83
70374;BME280;57792;49.198;7.890;2022-08-14T02:51:33;98292.06;;;12.90;58.14
70374;BME280;57792;49.198;7.890;2022-08-14T02:52:34;98293.03;;;12.89;57.64
70374;BME280;57792;49.198;7.890;2022-08-14T02:53:36;98284.91;;;12.91;57.61
70374;BME280;57792;49.198;7.890;2022-08-14T02:54:38;98283.88;;;12.93;57.44
70374;BME280;57792;49.198;7.890;2022-08-14T02:55:41;98283.19;;;12.90;57.72
70374;BME280;57792;49.198;7.890;2022-08-14T02:56:42;98284.63;;;12.95;57.53
70374;BME280;57792;49.198;7.890;2022-08-14T02:57:43;98285.09;;;12.88;57.84
70374;BME280;57792;49.198;7.890;2022-08-14T02:58:48;98285.00;;;12.89;58.05
70374;BME280;57792;49.198;7.890;2022-08-14T02:59:51;98286.91;;;12.87;57.93
70374;BME280;57792;49.198;7.890;2022-08-14T03:00:52;98292.16;;;12.89;57.98
70374;BME280;57792;49.198;7.890;2022-08-14T03:01:54;98276.09;;;12.89;58.27
70374;BME280;57792;49.198;7.890;2022-08-14T03:02:56;98276.88;;;12.91;57.67
70374;BME280;57792;49.198;7.890;2022-08-14T03:03:56;98280.44;;;12.75;58.88
70374;BME280;57792;49.198;7.890;2022-08-14T03:04:57;98274.81;;;12.80;58.36
70374;BME280;57792;49.198;7.890;2022-08-14T03:05:57;98271.03;;;12.84;57.76
70374;BME280;57792;49.198;7.890;2022-08-14T03:06:59;98273.00;;;12.81;58.15
70374;BME280;57792;49.198;7.890;2022-08-14T03:08:08;98269.13;;;12.70;59.06
70374;BME280;57792;49.198;7.890;2022-08-14T03:09:09;98270.50;;;12.77;57.97
70374;BME280;57792;49.198;7.890;2022-08-14T03:10:12;98263.44;;;12.76;58.26
70374;BME280;57792;49.198;7.890;2022-08-14T03:11:13;98267.66;;;12.81;58.35
70374;BME280;57792;49.198;7.890;2022-08-14T03:12:13;98266.09;;;12.76;58.53
70374;BME280;57792;49.198;7.890;2022-08-14T03:13:14;98266.78;;;12.80;57.82
70374;BME280;57792;49.198;7.890;2022-08-14T03:14:14;98269.56;;;12.63;59.75
70374;BME280;57792;49.198;7.890;2022-08-14T03:15:15;98260.41;;;12.67;58.44
70374;BME280;57792;49.198;7.890;2022-08-14T03:16:26;98261.69;;;12.75;57.90
70374;BME280;57792;49.198;7.890;2022-08-14T03:17:35;98263.00;;;12.68;58.25
70374;BME280;57792;49.198;7.890;2022-08-14T03:18:37;98266.19;;;12.75;58.14
70374;BME280;57792;49.198;7.890;2022-08-14T03:19:41;98261.63;;;12.77;58.24
70374;BME280;57792;49.198;7.890;2022-08-14T03:20:42;98257.31;;;12.74;58.25
70374;BME280;57792;49.198;7.890;2022-08-14T03:21:42;98261.34;;;12.66;58.84
70374;BME280;57792;49.198;7.890;2022-08-14T03:22:43;98263.09;;;12.67;58.78
70374;BME280;57792;49.198;7.890;2022-08-14T03:23:47;98258.78;;;12.64;58.82
70374;BME280;57792;49.198;7.890;2022-08-14T03:24:48;98261.34;;;12.66;58.62
70374;BME280;57792;49.198;7.890;2022-08-14T03:25:48;98259.72;;;12.63;58.34
70374;BME280;57792;49.198;7.890;2022-08-14T03:26:49;98257.66;;;12.68;58.20
70374;BME280;57792;49.198;7.890;2022-08-14T03:27:51;98255.84;;;12.69;58.34
70374;BME280;57792;49.198;7.890;2022-08-14T03:28:51;98245.78;;;12.58;59.11
70374;BME280;57792;49.198;7.890;2022-08-14T03:29:52;98258.69;;;12.66;58.67
70374;BME280;57792;49.198;7.890;2022-08-14T03:30:52;98253.81;;;12.58;58.85
70374;BME280;57792;49.198;7.890;2022-08-14T03:31:53;98252.66;;;12.62;58.86
70374;BME280;57792;49.198;7.890;2022-08-14T03:32:54;98256.09;;;12.64;58.57
70374;BME280;57792;49.198;7.890;2022-08-14T03:33:56;98255.91;;;12.67;58.96
70374;BME280;57792;49.198;7.890;2022-08-14T03:34:56;98251.91;;;12.60;58.65
70374;BME280;57792;49.198;7.890;2022-08-14T03:35:57;98249.78;;;12.65;58.71
70374;BME280;57792;49.198;7.890;2022-08-14T03:36:58;98244.81;;;12.59;58.61
70374;BME280;57792;49.198;7.890;2022-08-14T03:38:06;98241.53;;;12.54;59.81
70374;BME280;57792;49.198;7.890;2022-08-14T03:39:11;98240.94;;;12.49;58.90
70374;BME280;57792;49.198;7.890;2022-08-14T03:40:11;98240.78;;;12.52;59.07
70374;BME280;57792;49.198;7.890;2022-08-14T03:41:17;98238.34;;;12.48;59.78
70374;BME280;57792;49.198;7.890;2022-08-14T03:42:18;98237.66;;;12.44;59.21
70374;BME280;57792;49.198;7.890;2022-08-14T03:43:18;98235.94;;;12.43;59.51
70374;BME280;57792;49.198;7.890;2022-08-14T03:44:19;98241.19;;;12.44;59.21
70374;BME280;57792;49.198;7.890;2022-08-14T03:45:20;98238.44;;;12.46;59.18
70374;BME280;57792;49.198;7.890;2022-08-14T03:46:20;98236.16;;;12.38;59.32
70374;BME280;57792;49.198;7.890;2022-08-14T03:47:21;98234.19;;;12.26;60.20
70374;BME280;57792;49.198;7.890;2022-08-14T03:48:22;98231.34;;;12.13;60.72
70374;BME280;57792;49.198;7.890;2022-08-14T03:49:23;98230.56;;;12.27;59.71
70374;BME280;57792;49.198;7.890;2022-08-14T03:50:24;98233.25;;;12.27;59.91
70374;BME280;57792;49.198;7.890;2022-08-14T03:51:25;98231.75;;;12.37;59.34
70374;BME280;57792;49.198;7.890;2022-08-14T03:52:27;98239.63;;;12.40;59.41
70374;BME280;57792;49.198;7.890;2022-08-14T03:53:28;98236.06;;;12.40;59.58
70374;BME280;57792;49.198;7.890;2022-08-14T03:54:28;98234.03;;;12.45;59.67
70374;BME280;57792;49.198;7.890;2022-08-14T03:55:30;98230.91;;;12.37;59.82
70374;BME280;57792;49.198;7.890;2022-08-14T03:56:30;98246.88;;;12.23;60.49
70374;BME280;57792;49.198;7.890;2022-08-14T03:57:33;98238.13;;;12.35;59.65
70374;BME280;57792;49.198;7.890;2022-08-14T03:58:37;98235.72;;;12.30;60.43
70374;BME280;57792;49.198;7.890;2022-08-14T03:59:38;98236.16;;;12.38;59.51
70374;BME280;57792;49.198;7.890;2022-08-14T04:00:39;98235.31;;;12.38;59.46
70374;BME280;57792;49.198;7.890;2022-08-14T04:01:40;98232.50;;;12.41;59.49
70374;BME280;57792;49.198;7.890;2022-08-14T04:02:40;98239.63;;;12.40;59.52
70374;BME280;57792;49.198;7.890;2022-08-14T04:03:41;98231.53;;;12.42;59.24
70374;BME280;57792;49.198;7.890;2022-08-14T04:04:41;98232.78;;;12.35;60.26
70374;BME280;57792;49.198;7.890;2022-08-14T04:05:43;98239.00;;;12.35;59.79
70374;BME280;57792;49.198;7.890;2022-08-14T04:06:44;98241.06;;;12.30;60.12
70374;BME280;57792;49.198;7.890;2022-08-14T04:07:44;98233.34;;;12.26;59.88
70374;BME280;57792;49.198;7.890;2022-08-14T04:08:46;98235.47;;;12.35;59.76
70374;BME280;57792;49.198;7.890;2022-08-14T04:09:48;98229.09;;;12.37;59.76
70374;BME280;57792;49.198;7.890;2022-08-14T04:10:48;98234.25;;;12.40;59.48
70374;BME280;57792;49.198;7.890;2022-08-14T04:11:48;98233.66;;;12.35;60.12
70374;BME280;57792;49.198;7.890;2022-08-14T04:12:50;98232.72;;;12.36;59.81
70374;BME280;57792;49.198;7.890;2022-08-14T04:13:50;98231.69;;;12.23;61.08
70374;BME280;57792;49.198;7.890;2022-08-14T04:14:51;98230.66;;;12.26;60.15
70374;BME280;57792;49.198;7.890;2022-08-14T04:15:51;98238.31;;;12.32;60.05
70374;BME280;57792;49.198;7.890;2022-08-14T04:16:52;98233.34;;;12.26;59.94
70374;BME280;57792;49.198;7.890;2022-08-14T04:17:53;98229.34;;;12.33;60.06
70374;BME280;57792;49.198;7.890;2022-08-14T04:18:56;98230.28;;;12.32;60.28
70374;BME280;57792;49.198;7.890;2022-08-14T04:19:57;98231.44;;;12.28;60.28
70374;BME280;57792;49.198;7.890;2022-08-14T04:21:05;98232.97;;;12.32;60.00
70374;BME280;57792;49.198;7.890;2022-08-14T04:22:06;98227.81;;;12.29;60.11
70374;BME280;57792;49.198;7.890;2022-08-14T04:23:08;98237.63;;;12.12;61.46
70374;BME280;57792;49.198;7.890;2022-08-14T04:24:08;98240.72;;;12.05;60.83
70374;BME280;57792;49.198;7.890;2022-08-14T04:25:09;98235.03;;;12.11;60.55
70374;BME280;57792;49.198;7.890;2022-08-14T04:26:11;98226.69;;;12.17;60.57
70374;BME280;57792;49.198;7.890;2022-08-14T04:27:12;98228.84;;;12.26;59.99
70374;BME280;57792;49.198;7.890;2022-08-14T04:28:12;98224.63;;;12.22;60.54
70374;BME280;57792;49.198;7.890;2022-08-14T04:29:14;98230.75;;;12.24;60.46
70374;BME280;57792;49.198;7.890;2022-08-14T04:30:15;98228.56;;;12.31;60.50
70374;BME280;57792;49.198;7.890;2022-08-14T04:31:19;98228.69;;;12.29;60.59
70374;BME280;57792;49.198;7.890;2022-08-14T04:32:20;98234.59;;;12.34;60.28
70374;BME280;57792;49.198;7.890;2022-08-14T04:33:25;98234.84;;;12.30;60.19
70374;BME280;57792;49.198;7.890;2022-08-14T04:34:25;98234.84;;;12.30;60.21
70374;BME280;57792;49.198;7.890;2022-08-14T04:35:26;98232.88;;;12.33;60.03
70374;BME280;57792;49.198;7.890;2022-08-14T04:36:26;98239.19;;;12.32;59.98
70374;BME280;57792;49.198;7.890;2022-08-14T04:37:26;98240.66;;;12.38;60.02
70374;BME280;57792;49.198;7.890;2022-08-14T04:38:45;98238.41;;;12.30;60.20
70374;BME280;57792;49.198;7.890;2022-08-14T04:40:05;98229.81;;;12.25;60.45
70374;BME280;57792;49.198;7.890;2022-08-14T04:41:24;98230.22;;;12.33;59.87
70374;BME280;57792;49.198;7.890;2022-08-14T04:42:43;98231.06;;;12.34;60.00
70374;BME280;57792;49.198;7.890;2022-08-14T04:44:03;98234.97;;;12.28;60.72
70374;BME280;57792;49.198;7.890;2022-08-14T04:45:04;98233.91;;;12.31;60.30
70374;BME280;57792;49.198;7.890;2022-08-14T04:46:07;98231.75;;;12.37;60.32
70374;BME280;57792;49.198;7.890;2022-08-14T04:47:08;98237.28;;;12.34;60.96
70374;BME280;57792;49.198;7.890;2022-08-14T04:48:27;98232.88;;;12.33;60.46
70374;BME280;57792;49.198;7.890;2022-08-14T04:49:28;98235.22;;;12.24;61.57
70374;BME280;57792;49.198;7.890;2022-08-14T04:50:29;98232.19;;;12.30;60.51
70374;BME280;57792;49.198;7.890;2022-08-14T04:51:29;98232.03;;;12.33;60.73
70374;BME280;57792;49.198;7.890;2022-08-14T04:52:32;98234.44;;;12.37;61.09
70374;BME280;57792;49.198;7.890;2022-08-14T04:53:34;98232.03;;;12.33;60.89
70374;BME280;57792;49.198;7.890;2022-08-14T04:54:34;98230.22;;;12.33;60.39
70374;BME280;57792;49.198;7.890;2022-08-14T04:55:35;98241.59;;;12.37;60.78
70374;BME280;57792;49.198;7.890;2022-08-14T04:56:35;98240.91;;;12.33;60.69
70374;BME280;57792;49.198;7.890;2022-08-14T04:57:37;98237.28;;;12.34;60.96
70374;BME280;57792;49.198;7.890;2022-08-14T04:58:38;98241.69;;;12.35;60.43
70374;BME280;57792;49.198;7.890;2022-08-14T04:59:38;98245.22;;;12.36;60.55
70374;BME280;57792;49.198;7.890;2022-08-14T05:00:39;98242.38;;;12.39;60.61
70374;BME280;57792;49.198;7.890;2022-08-14T05:01:40;98235.22;;;12.39;60.69
70374;BME280;57792;49.198;7.890;2022-08-14T05:02:42;98234.25;;;12.40;60.66
70374;BME280;57792;49.198;7.890;2022-08-14T05:03:43;98234.25;;;12.40;60.79
70374;BME280;57792;49.198;7.890;2022-08-14T05:04:43;98233.25;;;12.43;60.73
70374;BME280;57792;49.198;7.890;2022-08-14T05:05:44;98234.13;;;12.43;60.85
70374;BME280;57792;49.198;7.890;2022-08-14T05:06:44;98232.91;;;12.49;60.70
70374;BME280;57792;49.198;7.890;2022-08-14T05:07:44;98231.88;;;12.52;60.76
70374;BME280;57792;49.198;7.890;2022-08-14T05:08:45;98228.59;;;12.47;60.83
70374;BME280;57792;49.198;7.890;2022-08-14T05:09:45;98233.44;;;12.56;60.37
70374;BME280;57792;49.198;7.890;2022-08-14T05:10:54;98231.28;;;12.47;61.76
70374;BME280;57792;49.198;7.890;2022-08-14T05:11:55;98240.84;;;12.51;61.14
70374;BME280;57792;49.198;7.890;2022-08-14T05:12:55;98240.78;;;12.52;61.35
70374;BME280;57792;49.198;7.890;2022-08-14T05:13:56;98233.41;;;12.40;61.52
70374;BME280;57792;49.198;7.890;2022-08-14T05:14:56;98239.03;;;12.51;60.90
70374;BME280;57792;49.198;7.890;2022-08-14T05:15:58;98227.75;;;12.62;60.70
70374;BME280;57792;49.198;7.890;2022-08-14T05:16:59;98249.78;;;12.65;60.42
70374;BME280;57792;49.198;7.890;2022-08-14T05:17:59;98244.28;;;12.68;60.44
70374;BME280;57792;49.198;7.890;2022-08-14T05:19:01;98239.63;;;12.72;60.51
70374;BME280;57792;49.198;7.890;2022-08-14T05:20:03;98241.06;;;12.77;60.30
70374;BME280;57792;49.198;7.890;2022-08-14T05:21:07;98246.34;;;12.79;60.37
70374;BME280;57792;49.198;7.890;2022-08-14T05:22:07;98235.22;;;12.71;60.49
70374;BME280;57792;49.198;7.890;2022-08-14T05:23:09;98232.88;;;12.81;60.29
70374;BME280;57792;49.198;7.890;2022-08-14T05:24:09;98220.97;;;12.86;60.08
70374;BME280;57792;49.198;7.890;2022-08-14T05:25:11;98231.97;;;12.96;59.99
70374;BME280;57792;49.198;7.890;2022-08-14T05:26:11;98228.41;;;12.95;59.98
70374;BME280;57792;49.198;7.890;2022-08-14T05:27:12;98217.06;;;12.92;60.14
70374;BME280;57792;49.198;7.890;2022-08-14T05:28:14;98226.44;;;12.99;60.23
70374;BME280;57792;49.198;7.890;2022-08-14T05:29:18;98227.38;;;12.98;60.08
70374;BME280;57792;49.198;7.890;2022-08-14T05:30:18;98221.66;;;12.90;60.78
70374;BME280;57792;49.198;7.890;2022-08-14T05:31:19;98227.69;;;12.93;60.49